createdAt,value
2023-05-06T00:00:40.917Z,101524.56
2023-05-06T00:03:07.889Z,101525.81
2023-05-06T00:05:36.721Z,101520.91
2023-05-06T00:08:04.374Z,101524.59
2023-05-06T00:10:31.477Z,101525.03
2023-05-06T00:12:58.431Z,101531.19
2023-05-06T00:15:25.574Z,101535.69
2023-05-06T00:17:52.511Z,101525.03
2023-05-06T00:20:19.478Z,101516.00
2023-05-06T00:22:47.866Z,101526.25
2023-05-06T00:25:14.778Z,101525.81
2023-05-06T00:27:41.723Z,101529.53
2023-05-06T00:30:10.883Z,101522.53
2023-05-06T00:32:38.109Z,101529.53
2023-05-06T00:35:06.853Z,101524.19
2023-05-06T00:37:33.882Z,101531.75
2023-05-06T00:40:03.028Z,101533.41
2023-05-06T00:42:29.909Z,101532.38
2023-05-06T00:44:56.918Z,101537.91
2023-05-06T00:47:24.107Z,101532.38
2023-05-06T00:49:51.419Z,101537.72
2023-05-06T00:52:19.789Z,101541.41
2023-05-06T00:54:46.743Z,101543.25
2023-05-06T00:57:15.326Z,101545.09
2023-05-06T00:59:44.335Z,101543.47
2023-05-06T01:02:11.510Z,101549.22
2023-05-06T01:04:38.657Z,101545.94
2023-05-06T01:07:16.873Z,101544.75
2023-05-06T01:09:57.270Z,101538.81
2023-05-06T01:12:34.054Z,101542.25
2023-05-06T01:15:09.657Z,101541.03
2023-05-06T01:17:43.460Z,101537.53
2023-05-06T01:20:12.613Z,101538.97
2023-05-06T01:22:39.826Z,101543.88
2023-05-06T01:25:19.097Z,101545.53
2023-05-06T01:27:46.060Z,101546.75
2023-05-06T01:30:15.566Z,101553.75
2023-05-06T01:32:58.347Z,101554.75
2023-05-06T01:35:40.578Z,101555.78
2023-05-06T01:38:18.955Z,101552.94
2023-05-06T01:40:54.241Z,101558.69
2023-05-06T01:43:23.865Z,101554.59
2023-05-06T01:45:54.769Z,101556.06
2023-05-06T01:48:25.506Z,101566.09
2023-05-06T01:50:52.853Z,101559.13
2023-05-06T01:53:19.765Z,101558.31
2023-05-06T01:55:48.726Z,101565.28
2023-05-06T01:58:15.840Z,101562.81
2023-05-06T02:00:42.894Z,101564.47
2023-05-06T02:03:09.875Z,101573.31
2023-05-06T02:05:36.824Z,101569.81
2023-05-06T02:08:03.799Z,101570.22
2023-05-06T02:10:30.903Z,101577.19
2023-05-06T02:12:59.275Z,101570.63
2023-05-06T02:15:26.357Z,101577.44
2023-05-06T02:17:53.301Z,101565.31
2023-05-06T02:20:20.354Z,101559.56
2023-05-06T02:22:47.293Z,101565.34
2023-05-06T02:25:14.231Z,101568.19
2023-05-06T02:27:41.105Z,101574.16
2023-05-06T02:30:10.478Z,101561.66
2023-05-06T02:32:37.617Z,101570.28
2023-05-06T02:35:06.030Z,101571.09
2023-05-06T02:37:33.034Z,101576.00
2023-05-06T02:39:59.918Z,101570.22
2023-05-06T02:42:26.913Z,101580.69
2023-05-06T02:44:53.818Z,101580.28
2023-05-06T02:47:40.551Z,101581.09
2023-05-06T02:50:08.246Z,101582.53
2023-05-06T02:52:35.172Z,101581.31
2023-05-06T02:55:02.841Z,101581.50
2023-05-06T02:57:29.903Z,101574.72
2023-05-06T02:59:56.877Z,101571.44
2023-05-06T03:02:23.821Z,101577.22
2023-05-06T03:04:52.095Z,101573.91
2023-05-06T03:07:20.058Z,101574.31
2023-05-06T03:09:46.922Z,101564.06
2023-05-06T03:12:13.797Z,101570.81
2023-05-06T03:14:40.696Z,101555.84
2023-05-06T03:17:07.740Z,101555.25
2023-05-06T03:19:34.765Z,101554.63
2023-05-06T03:22:03.286Z,101551.75
2023-05-06T03:24:30.177Z,101555.84
2023-05-06T03:26:58.428Z,101558.06
2023-05-06T03:29:25.378Z,101558.69
2023-05-06T03:31:52.311Z,101564.78
2023-05-06T03:34:19.220Z,101562.72
2023-05-06T03:36:46.297Z,101560.66
2023-05-06T03:39:14.553Z,101562.72
2023-05-06T03:41:41.449Z,101570.91
2023-05-06T03:44:08.323Z,101573.75
2023-05-06T03:46:35.243Z,101577.25
2023-05-06T03:49:02.774Z,101573.75
2023-05-06T03:51:30.690Z,101581.75
2023-05-06T03:53:58.088Z,101578.28
2023-05-06T03:56:26.294Z,101568.25
2023-05-06T03:58:56.306Z,101579.53
2023-05-06T04:01:23.217Z,101572.59
2023-05-06T04:03:50.497Z,101582.44
2023-05-06T04:06:17.384Z,101585.53
2023-05-06T04:08:44.255Z,101591.47
2023-05-06T04:11:11.409Z,101591.72
2023-05-06T04:13:39.572Z,101591.09
2023-05-06T04:16:07.071Z,101591.53
2023-05-06T04:18:34.225Z,101596.25
2023-05-06T04:21:01.272Z,101595.84
2023-05-06T04:23:28.170Z,101593.59
2023-05-06T04:25:55.383Z,101600.38
2023-05-06T04:28:22.356Z,101602.63
2023-05-06T04:30:50.858Z,101601.59
2023-05-06T04:33:17.727Z,101612.06
2023-05-06T04:35:53.681Z,101616.16
2023-05-06T04:38:26.985Z,101621.69
2023-05-06T04:40:53.922Z,101618.63
2023-05-06T04:43:21.010Z,101618.22
2023-05-06T04:45:50.738Z,101620.28
2023-05-06T04:48:22.271Z,101621.09
2023-05-06T04:50:49.280Z,101621.09
2023-05-06T04:53:16.717Z,101628.88
2023-05-06T04:55:43.885Z,101628.50
2023-05-06T04:58:10.833Z,101626.47
2023-05-06T05:00:37.817Z,101626.25
2023-05-06T05:03:04.815Z,101635.91
2023-05-06T05:05:34.375Z,101627.44
2023-05-06T05:08:01.299Z,101629.09
2023-05-06T05:10:28.160Z,101627.84
2023-05-06T05:12:55.038Z,101637.91
2023-05-06T05:15:22.065Z,101639.13
2023-05-06T05:17:50.199Z,101642.00
2023-05-06T05:20:21.961Z,101647.72
2023-05-06T05:22:50.747Z,101647.72
2023-05-06T05:25:17.835Z,101651.00
2023-05-06T05:27:44.762Z,101656.97
2023-05-06T05:30:12.461Z,101649.78
2023-05-06T05:32:39.462Z,101652.88
2023-05-06T05:35:10.074Z,101649.81
2023-05-06T05:37:37.357Z,101654.72
2023-05-06T05:40:07.867Z,101655.53
2023-05-06T05:42:34.755Z,101660.06
2023-05-06T05:45:01.758Z,101663.97
2023-05-06T05:47:28.736Z,101665.84
2023-05-06T05:49:55.619Z,101664.22
2023-05-06T05:52:22.587Z,101668.72
2023-05-06T05:54:49.775Z,101668.13
2023-05-06T05:57:18.025Z,101666.91
2023-05-06T05:59:44.874Z,101666.28
2023-05-06T06:02:11.809Z,101671.19
2023-05-06T06:04:38.740Z,101672.41
2023-05-06T06:07:05.841Z,101673.22
2023-05-06T06:09:32.727Z,101667.91
2023-05-06T06:11:59.588Z,101668.88
2023-05-06T06:14:27.874Z,101674.44
2023-05-06T06:16:55.266Z,101672.38
2023-05-06T06:19:22.156Z,101679.34
2023-05-06T06:21:49.088Z,101680.00
2023-05-06T06:24:16.283Z,101685.75
2023-05-06T06:26:43.141Z,101682.66
2023-05-06T06:29:10.030Z,101682.00
2023-05-06T06:31:40.310Z,101689.44
2023-05-06T06:34:08.977Z,101696.38
2023-05-06T06:36:35.926Z,101698.00
2023-05-06T06:39:03.322Z,101694.69
2023-05-06T06:41:30.203Z,101691.59
2023-05-06T06:43:57.025Z,101696.09
2023-05-06T06:46:24.040Z,101707.56
2023-05-06T06:48:52.346Z,101703.06
2023-05-06T06:51:19.276Z,101702.22
2023-05-06T06:53:48.216Z,101709.41
2023-05-06T06:56:15.900Z,101718.06
2023-05-06T06:58:42.981Z,101718.47
2023-05-06T07:01:10.372Z,101718.72
2023-05-06T07:03:37.372Z,101722.84
2023-05-06T07:06:05.828Z,101713.38
2023-05-06T07:08:32.757Z,101712.97
2023-05-06T07:10:59.746Z,101713.78
2023-05-06T07:13:26.700Z,101710.88
2023-05-06T07:15:53.669Z,101714.34
2023-05-06T07:18:20.584Z,101718.81
2023-05-06T07:20:47.477Z,101724.78
2023-05-06T07:23:15.899Z,101721.50
2023-05-06T07:25:42.794Z,101733.22
2023-05-06T07:28:09.656Z,101726.00
2023-05-06T07:30:38.376Z,101725.97
2023-05-06T07:33:05.663Z,101726.78
2023-05-06T07:35:32.752Z,101730.03
2023-05-06T07:37:59.733Z,101736.16
2023-05-06T07:40:28.086Z,101737.00
2023-05-06T07:42:55.595Z,101746.06
2023-05-06T07:45:24.252Z,101745.47
2023-05-06T07:47:51.524Z,101748.56
2023-05-06T07:50:18.554Z,101749.00
2023-05-06T07:52:45.750Z,101743.22
2023-05-06T07:55:12.968Z,101738.28
2023-05-06T07:57:41.404Z,101745.25
2023-05-06T08:00:09.985Z,101746.03
2023-05-06T08:02:38.630Z,101750.06
2023-05-06T08:05:08.843Z,101759.47
2023-05-06T08:07:35.948Z,101755.75
2023-05-06T08:10:03.038Z,101752.00
2023-05-06T08:12:30.534Z,101752.75
2023-05-06T08:14:58.787Z,101751.72
2023-05-06T08:17:25.733Z,101765.09
2023-05-06T08:19:52.754Z,101756.47
2023-05-06T08:22:19.753Z,101758.28
2023-05-06T08:24:46.637Z,101767.47
2023-05-06T08:29:40.428Z,101774.19
2023-05-06T08:32:08.742Z,101778.94
2023-05-06T08:34:35.645Z,101769.47
2023-05-06T08:37:02.545Z,101773.84
2023-05-06T08:39:30.690Z,101774.44
2023-05-06T08:42:00.654Z,101775.63
2023-05-06T08:44:28.227Z,101780.56
2023-05-06T08:46:55.565Z,101769.41
2023-05-06T08:49:23.774Z,101782.38
2023-05-06T08:51:55.175Z,101789.97
2023-05-06T08:54:24.896Z,101796.97
2023-05-06T08:56:56.685Z,101791.59
2023-05-06T08:59:25.532Z,101788.69
2023-05-06T09:01:53.113Z,101789.25
2023-05-06T09:04:20.330Z,101794.66
2023-05-06T09:06:48.595Z,101795.41
2023-05-06T09:09:15.516Z,101795.66
2023-05-06T09:11:42.567Z,101795.91
2023-05-06T09:14:12.842Z,101797.31
2023-05-06T09:16:42.573Z,101794.56
2023-05-06T09:19:09.782Z,101796.38
2023-05-06T09:21:39.048Z,101786.53
2023-05-06T09:24:09.939Z,101791.59
2023-05-06T09:26:39.323Z,101788.50
2023-05-06T09:29:06.830Z,101792.81
2023-05-06T09:31:41.195Z,101789.81
2023-05-06T09:34:08.208Z,101796.41
2023-05-06T09:36:35.214Z,101799.81
2023-05-06T09:39:02.161Z,101793.81
2023-05-06T09:41:31.064Z,101784.16
2023-05-06T09:43:59.117Z,101786.53
2023-05-06T09:46:27.982Z,101772.25
2023-05-06T09:48:58.158Z,101778.78
2023-05-06T09:51:28.359Z,101782.72
2023-05-06T09:53:56.976Z,101785.22
2023-05-06T09:56:24.896Z,101782.81
2023-05-06T09:58:54.580Z,101784.00
2023-05-06T10:01:32.647Z,101784.47
2023-05-06T10:04:08.122Z,101778.03
2023-05-06T10:06:36.866Z,101785.88
2023-05-06T10:09:06.646Z,101782.97
2023-05-06T10:11:34.091Z,101777.53
2023-05-06T10:14:04.223Z,101772.03
2023-05-06T10:16:35.712Z,101770.28
2023-05-06T10:19:06.324Z,101774.41
2023-05-06T10:21:38.171Z,101767.16
2023-05-06T10:24:08.971Z,101778.31
2023-05-06T10:26:38.318Z,101775.47
2023-05-06T10:29:10.684Z,101771.34
2023-05-06T10:31:46.197Z,101775.69
2023-05-06T10:34:13.594Z,101771.91
2023-05-06T10:36:44.797Z,101775.66
2023-05-06T10:39:14.223Z,101771.47
2023-05-06T10:41:41.539Z,101783.03
2023-05-06T10:44:10.044Z,101773.06
2023-05-06T10:46:59.566Z,101771.34
2023-05-06T10:49:27.210Z,101769.44
2023-05-06T10:52:14.385Z,101770.81
2023-05-06T10:54:50.489Z,101768.34
2023-05-06T10:57:17.861Z,101762.38
2023-05-06T10:59:47.628Z,101762.88
2023-05-06T11:02:19.909Z,101759.34
2023-05-06T11:04:51.824Z,101756.41
2023-05-06T11:07:23.585Z,101760.09
2023-05-06T11:09:58.850Z,101769.78
2023-05-06T11:12:45.373Z,101759.72
2023-05-06T11:15:25.018Z,101762.56
2023-05-06T11:17:54.421Z,101762.13
2023-05-06T11:20:23.938Z,101763.03
2023-05-06T11:22:51.502Z,101763.00
2023-05-06T11:25:41.119Z,101758.78
2023-05-06T11:28:10.070Z,101767.53
2023-05-06T11:30:42.236Z,101763.34
2023-05-06T11:33:19.497Z,101758.69
2023-05-06T11:35:46.561Z,101762.56
2023-05-06T11:38:13.490Z,101759.38
2023-05-06T11:40:41.613Z,101761.56
2023-05-06T11:43:13.302Z,101754.63
2023-05-06T11:45:43.760Z,101754.25
2023-05-06T11:48:14.114Z,101759.25
2023-05-06T11:50:45.627Z,101761.06
2023-05-06T11:53:12.941Z,101776.38
2023-05-06T11:55:40.374Z,101764.50
2023-05-06T11:58:12.872Z,101772.03
2023-05-06T12:00:51.326Z,101775.16
2023-05-06T12:03:19.147Z,101766.91
2023-05-06T12:05:47.937Z,101767.41
2023-05-06T12:08:26.711Z,101770.09
2023-05-06T12:10:59.009Z,101771.97
2023-05-06T12:13:27.511Z,101781.16
2023-05-06T12:15:58.227Z,101776.88
2023-05-06T12:18:26.205Z,101775.47
2023-05-06T12:20:54.600Z,101772.78
2023-05-06T12:23:21.990Z,101775.75
2023-05-06T12:26:02.429Z,101784.19
2023-05-06T12:28:31.281Z,101782.00
2023-05-06T12:30:59.635Z,101778.81
2023-05-06T12:33:26.536Z,101776.31
2023-05-06T12:35:56.880Z,101781.25
2023-05-06T12:38:23.780Z,101783.63
2023-05-06T12:40:54.751Z,101785.72
2023-05-06T12:43:30.617Z,101780.16
2023-05-06T12:46:07.053Z,101786.03
2023-05-06T12:48:34.326Z,101778.72
2023-05-06T12:51:17.062Z,101773.81
2023-05-06T12:53:43.978Z,101776.75
2023-05-06T12:56:10.847Z,101773.53
2023-05-06T12:58:39.423Z,101780.63
2023-05-06T13:01:07.992Z,101771.69
2023-05-06T13:03:38.208Z,101771.16
2023-05-06T13:06:06.111Z,101776.44
2023-05-06T13:08:33.803Z,101774.38
2023-05-06T13:11:02.324Z,101774.56
2023-05-06T13:13:29.204Z,101773.41
2023-05-06T13:15:56.997Z,101766.13
2023-05-06T13:18:26.166Z,101773.47
2023-05-06T13:20:53.042Z,101765.19
2023-05-06T13:23:19.936Z,101759.22
2023-05-06T13:26:02.881Z,101759.28
2023-05-06T13:28:32.933Z,101766.94
2023-05-06T13:30:59.824Z,101761.16
2023-05-06T13:33:28.072Z,101764.31
2023-05-06T13:35:54.999Z,101760.44
2023-05-06T13:38:22.214Z,101752.38
2023-05-06T13:40:51.915Z,101762.16
2023-05-06T13:43:19.018Z,101757.25
2023-05-06T13:45:46.125Z,101751.56
2023-05-06T13:48:13.925Z,101746.47
2023-05-06T13:50:43.424Z,101747.19
2023-05-06T13:53:11.286Z,101752.97
2023-05-06T13:55:38.432Z,101751.06
2023-05-06T13:58:06.821Z,101749.47
2023-05-06T14:00:35.873Z,101744.03
2023-05-06T14:03:03.712Z,101748.63
2023-05-06T14:05:30.692Z,101738.34
2023-05-06T14:07:58.872Z,101745.09
2023-05-06T14:10:25.857Z,101747.13
2023-05-06T14:12:52.774Z,101747.22
2023-05-06T14:15:20.093Z,101746.72
2023-05-06T14:17:47.029Z,101738.69
2023-05-06T14:20:13.942Z,101741.59
2023-05-06T14:22:41.720Z,101739.94
2023-05-06T14:25:10.988Z,101742.09
2023-05-06T14:27:38.102Z,101736.28
2023-05-06T14:30:09.541Z,101738.00
2023-05-06T14:32:37.265Z,101735.75
2023-05-06T14:35:05.561Z,101730.78
2023-05-06T14:37:32.510Z,101727.22
2023-05-06T14:39:59.379Z,101720.38
2023-05-06T14:42:27.588Z,101713.31
2023-05-06T14:44:54.888Z,101711.78
2023-05-06T14:47:22.314Z,101718.75
2023-05-06T14:49:49.335Z,101704.59
2023-05-06T14:52:16.201Z,101708.84
2023-05-06T14:54:43.158Z,101714.69
2023-05-06T14:57:10.773Z,101711.63
2023-05-06T14:59:39.121Z,101712.03
2023-05-06T15:02:09.714Z,101709.38
2023-05-06T15:04:37.047Z,101708.31
2023-05-06T15:07:04.372Z,101705.94
2023-05-06T15:09:31.442Z,101712.47
2023-05-06T15:11:58.487Z,101714.06
2023-05-06T15:14:26.078Z,101722.91
2023-05-06T15:16:57.330Z,101724.09
2023-05-06T15:19:24.704Z,101720.13
2023-05-06T15:21:51.629Z,101733.84
2023-05-06T15:24:18.607Z,101734.72
2023-05-06T15:26:45.843Z,101732.34
2023-05-06T15:29:13.045Z,101740.69
2023-05-06T15:31:40.837Z,101738.44
2023-05-06T15:34:11.304Z,101741.50
2023-05-06T15:36:38.810Z,101739.94
2023-05-06T15:39:05.803Z,101743.81
2023-05-06T15:41:35.271Z,101748.53
2023-05-06T15:46:33.013Z,101749.84
2023-05-06T15:51:31.943Z,101757.44
2023-05-06T15:53:58.837Z,101749.44
2023-05-06T15:56:27.095Z,101762.03
2023-05-06T15:58:55.512Z,101752.47
2023-05-06T16:01:40.254Z,101758.84
2023-05-06T16:04:09.665Z,101754.59
2023-05-06T16:06:38.037Z,101751.00
2023-05-06T16:09:04.946Z,101749.78
2023-05-06T16:11:31.843Z,101750.09
2023-05-06T16:13:58.746Z,101753.16
2023-05-06T16:16:25.768Z,101762.78
2023-05-06T16:18:52.803Z,101761.88
2023-05-06T16:21:19.721Z,101764.16
2023-05-06T16:23:48.418Z,101766.75
2023-05-06T16:26:16.538Z,101757.81
2023-05-06T16:28:43.415Z,101761.84
2023-05-06T16:31:10.514Z,101772.97
2023-05-06T16:33:37.569Z,101761.28
2023-05-06T16:36:05.700Z,101758.28
2023-05-06T16:38:32.602Z,101763.44
2023-05-06T16:41:00.807Z,101762.75
2023-05-06T16:43:28.245Z,101757.94
2023-05-06T16:45:55.466Z,101759.22
2023-05-06T16:48:22.546Z,101756.63
2023-05-06T16:50:49.525Z,101756.75
2023-05-06T16:53:17.323Z,101750.69
2023-05-06T16:55:47.584Z,101754.28
2023-05-06T16:58:15.982Z,101760.81
2023-05-06T17:00:43.029Z,101741.16
2023-05-06T17:03:10.417Z,101741.97
2023-05-06T17:05:37.542Z,101744.97
2023-05-06T17:08:05.411Z,101746.50
2023-05-06T17:10:32.308Z,101755.88
2023-05-06T17:12:59.396Z,101758.44
2023-05-06T17:15:27.838Z,101756.00
2023-05-06T17:17:54.840Z,101756.19
2023-05-06T17:20:22.711Z,101755.63
2023-05-06T17:22:49.620Z,101761.44
2023-05-06T17:25:16.904Z,101754.88
2023-05-06T17:27:45.078Z,101763.38
2023-05-06T17:30:13.126Z,101764.88
2023-05-06T17:32:42.295Z,101765.34
2023-05-06T17:35:10.207Z,101769.97
2023-05-06T17:37:37.349Z,101765.22
2023-05-06T17:40:07.622Z,101765.84
2023-05-06T17:42:34.778Z,101768.03
2023-05-06T17:45:01.826Z,101763.41
2023-05-06T17:47:30.244Z,101767.44
2023-05-06T17:49:58.809Z,101770.81
2023-05-06T17:52:26.514Z,101772.13
2023-05-06T17:55:10.603Z,101771.78
2023-05-06T17:57:40.781Z,101772.03
2023-05-06T18:00:09.553Z,101771.03
2023-05-06T18:02:36.591Z,101776.84
2023-05-06T18:05:06.352Z,101778.94
2023-05-06T18:07:34.400Z,101781.44
2023-05-06T18:10:01.378Z,101782.28
2023-05-06T18:12:28.575Z,101782.56
2023-05-06T18:14:56.678Z,101786.06
2023-05-06T18:17:23.774Z,101790.28
2023-05-06T18:19:50.898Z,101798.16
2023-05-06T18:22:19.104Z,101799.25
2023-05-06T18:24:45.988Z,101803.59
2023-05-06T18:27:12.916Z,101809.78
2023-05-06T18:29:41.193Z,101803.22
2023-05-06T18:32:08.400Z,101807.16
2023-05-06T18:34:35.562Z,101813.78
2023-05-06T18:37:02.604Z,101816.06
2023-05-06T18:39:30.940Z,101804.97
2023-05-06T18:41:57.811Z,101822.88
2023-05-06T18:44:24.819Z,101814.88
2023-05-06T18:46:51.690Z,101820.25
2023-05-06T18:49:18.600Z,101826.41
2023-05-06T18:51:45.504Z,101817.41
2023-05-06T18:54:14.095Z,101828.72
2023-05-06T18:56:43.932Z,101830.34
2023-05-06T18:59:11.561Z,101830.38
2023-05-06T19:01:38.554Z,101838.78
2023-05-06T19:04:06.342Z,101842.91
2023-05-06T19:06:33.514Z,101838.38
2023-05-06T19:09:01.073Z,101837.31
2023-05-06T19:11:27.950Z,101840.81
2023-05-06T19:13:56.152Z,101843.66
2023-05-06T19:16:23.082Z,101848.97
2023-05-06T19:18:50.123Z,101838.50
2023-05-06T19:21:18.478Z,101833.31
2023-05-06T19:23:45.540Z,101844.81
2023-05-06T19:26:13.737Z,101843.59
2023-05-06T19:28:40.965Z,101850.16
2023-05-06T19:31:10.673Z,101858.31
2023-05-06T19:33:38.280Z,101855.66
2023-05-06T19:36:06.545Z,101857.31
2023-05-06T19:38:34.170Z,101846.84
2023-05-06T19:41:01.216Z,101853.81
2023-05-06T19:43:28.250Z,101853.00
2023-05-06T19:45:55.730Z,101860.38
2023-05-06T19:48:24.252Z,101855.03
2023-05-06T19:50:53.719Z,101860.81
2023-05-06T19:53:22.512Z,101859.97
2023-05-06T19:55:49.446Z,101854.66
2023-05-06T19:58:17.110Z,101855.25
2023-05-06T20:00:44.940Z,101859.59
2023-05-06T20:03:12.027Z,101866.56
2023-05-06T20:05:41.447Z,101864.09
2023-05-06T20:08:11.479Z,101869.22
2023-05-06T20:10:38.393Z,101857.47
2023-05-06T20:13:06.317Z,101872.88
2023-05-06T20:15:33.451Z,101867.31
2023-05-06T20:18:00.308Z,101866.50
2023-05-06T20:20:34.211Z,101868.97
2023-05-06T20:23:02.936Z,101866.91
2023-05-06T20:25:30.266Z,101872.63
2023-05-06T20:27:59.119Z,101865.66
2023-05-06T20:30:26.375Z,101878.16
2023-05-06T20:32:53.343Z,101873.84
2023-05-06T20:35:20.343Z,101887.78
2023-05-06T20:37:47.217Z,101892.72
2023-05-06T20:40:15.713Z,101885.94
2023-05-06T20:42:42.581Z,101890.59
2023-05-06T20:45:10.493Z,101882.00
2023-05-06T20:47:37.808Z,101891.63
2023-05-06T20:50:05.821Z,101899.63
2023-05-06T20:52:33.781Z,101903.69
2023-05-06T20:55:00.922Z,101899.59
2023-05-06T20:57:29.350Z,101898.75
2023-05-06T20:59:56.322Z,101905.75
2023-05-06T21:02:23.320Z,101911.09
2023-05-06T21:04:50.803Z,101910.44
2023-05-06T21:07:17.829Z,101905.75
2023-05-06T21:09:44.833Z,101904.09
2023-05-06T21:12:12.218Z,101903.69
2023-05-06T21:14:40.444Z,101902.50
2023-05-06T21:17:08.311Z,101899.00
2023-05-06T21:19:35.522Z,101895.31
2023-05-06T21:22:02.818Z,101893.22
2023-05-06T21:24:30.670Z,101901.63
2023-05-06T21:26:57.611Z,101898.72
2023-05-06T21:29:24.479Z,101894.22
2023-05-06T21:31:52.681Z,101894.22
2023-05-06T21:34:19.887Z,101889.91
2023-05-06T21:36:46.747Z,101880.25
2023-05-06T21:39:14.351Z,101883.13
2023-05-06T21:41:41.248Z,101883.94
2023-05-06T21:44:10.137Z,101885.56
2023-05-06T21:46:37.839Z,101889.28
2023-05-06T21:49:06.283Z,101885.53
2023-05-06T21:51:36.493Z,101880.19
2023-05-06T21:54:03.558Z,101889.31
2023-05-06T21:56:30.452Z,101875.53
2023-05-06T21:58:57.328Z,101879.22
2023-05-06T22:01:29.031Z,101880.25
2023-05-06T22:03:56.388Z,101878.59
2023-05-06T22:06:24.844Z,101885.19
2023-05-06T22:08:51.941Z,101881.50
2023-05-06T22:11:18.898Z,101892.78
2023-05-06T22:13:45.918Z,101888.28
2023-05-06T22:16:13.031Z,101891.97
2023-05-06T22:18:42.538Z,101898.13
2023-05-06T22:21:09.818Z,101892.53
2023-05-06T22:23:40.381Z,101896.88
2023-05-06T22:26:07.312Z,101897.69
2023-05-06T22:28:34.475Z,101898.53
2023-05-06T22:31:01.325Z,101903.84
2023-05-06T22:33:28.320Z,101893.56
2023-05-06T22:35:55.594Z,101899.50
2023-05-06T22:38:22.686Z,101901.31
2023-05-06T22:40:51.170Z,101906.66
2023-05-06T22:43:18.004Z,101906.66
2023-05-06T22:45:45.004Z,101909.53
2023-05-06T22:48:12.216Z,101900.06
2023-05-06T22:50:39.299Z,101900.44
2023-05-06T22:53:15.186Z,101906.78
2023-05-06T22:55:42.793Z,101907.19
2023-05-06T22:58:11.141Z,101901.22
2023-05-06T23:00:38.249Z,101899.19
2023-05-06T23:03:05.893Z,101902.66
2023-05-06T23:05:32.850Z,101906.56
2023-05-06T23:07:59.707Z,101908.97
2023-05-06T23:10:26.773Z,101905.47
2023-05-06T23:12:53.708Z,101907.69
2023-05-06T23:15:22.872Z,101902.94
2023-05-06T23:17:49.794Z,101908.84
2023-05-06T23:20:17.214Z,101907.59
2023-05-06T23:22:44.235Z,101910.34
2023-05-06T23:25:12.098Z,101909.44
2023-05-06T23:27:40.112Z,101916.59
2023-05-06T23:30:08.786Z,101909.81
2023-05-06T23:32:37.502Z,101914.16
2023-05-06T23:35:07.135Z,101916.81
2023-05-06T23:37:34.250Z,101914.34
2023-05-06T23:40:01.276Z,101916.28
2023-05-06T23:42:28.224Z,101905.47
2023-05-06T23:44:55.102Z,101913.19
2023-05-06T23:47:22.057Z,101926.59
2023-05-06T23:49:50.527Z,101929.63
2023-05-06T23:52:17.389Z,101923.03
2023-05-06T23:54:44.263Z,101930.38
2023-05-06T23:57:11.185Z,101929.09
2023-05-06T23:59:38.106Z,101928.72
